Time;durP1;ratioP1;P1;durP2;ratioP2;P2;SDS_P1;SDS_P2;PMS_P1;PMS_P2;Temp;Humidity;BMP_temperature;BMP_pressure;BME280_temperature;BME280_humidity;BME280_pressure;Samples;Min_cycle;Max_cycle;Signal;HPM_P1;HPM_P2
2021/01/25 00:00:21;;;;;;;7.55;6.07;;;;;;;;;;5019448;28;20206;-71
2021/01/25 00:02:47;;;;;;;8.65;5.70;;;;;;;;;;5031253;28;20593;-71
2021/01/25 00:05:13;;;;;;;7.05;5.88;;;;;;;;;;5031680;28;20175;-71
2021/01/25 00:07:40;;;;;;;6.95;5.22;;;;;;;;;;5031957;28;20206;-71
2021/01/25 00:10:07;;;;;;;6.75;6.15;;;;;;;;;;5032909;28;20187;-72
2021/01/25 00:12:33;;;;;;;8.23;6.07;;;;;;;;;;5028868;28;20210;-72
2021/01/25 00:14:59;;;;;;;11.07;7.15;;;;;;;;;;5015577;28;20292;-71
2021/01/25 00:17:25;;;;;;;7.10;5.50;;;;;;;;;;5032943;28;20731;-71
2021/01/25 00:19:51;;;;;;;9.52;6.65;;;;;;;;;;5015140;28;20643;-72
2021/01/25 00:22:17;;;;;;;7.05;6.35;;;;;;;;;;5021068;28;20673;-72
2021/01/25 00:24:43;;;;;;;6.00;5.35;;;;;;;;;;5027319;28;20188;-71
2021/01/25 00:27:09;;;;;;;7.47;5.57;;;;;;;;;;5017937;28;20178;-72
2021/01/25 00:29:35;;;;;;;8.45;6.10;;;;;;;;;;5031576;28;20182;-72
2021/01/25 00:32:02;;;;;;;5.95;5.15;;;;;;;;;;5032101;28;20183;-72
2021/01/25 00:34:28;;;;;;;6.55;5.68;;;;;;;;;;5031438;28;20679;-71
2021/01/25 00:36:54;;;;;;;7.00;5.88;;;;;;;;;;5027423;28;20509;-71
2021/01/25 00:39:20;;;;;;;6.43;4.93;;;;;;;;;;5024905;28;20696;-72
2021/01/25 00:41:46;;;;;;;6.38;5.60;;;;;;;;;;5031841;28;20178;-71
2021/01/25 00:44:12;;;;;;;6.40;5.72;;;;;;;;;;5030738;28;20695;-72
2021/01/25 00:46:38;;;;;;;7.53;6.00;;;;;;;;;;5027724;28;20210;-72
2021/01/25 00:49:04;;;;;;;7.22;6.47;;;;;;;;;;5018139;28;20217;-72
2021/01/25 00:51:30;;;;;;;6.95;5.30;;;;;;;;;;5030700;28;20610;-72
2021/01/25 00:53:56;;;;;;;8.45;5.72;;;;;;;;;;5012327;28;20238;-72
2021/01/25 00:56:22;;;;;;;6.45;5.85;;;;;;;;;;5025489;28;20258;-72
2021/01/25 00:58:48;;;;;;;9.35;6.20;;;;;;;;;;5024118;28;20613;-72
2021/01/25 01:01:14;;;;;;;9.65;6.38;;;;;;;;;;5026038;28;20206;-72
2021/01/25 01:03:41;;;;;;;7.18;6.45;;;;;;;;;;5030951;28;20213;-72
2021/01/25 01:06:07;;;;;;;7.15;5.85;;;;;;;;;;5034484;28;20200;-72
2021/01/25 01:08:33;;;;;;;7.93;6.55;;;;;;;;;;5030017;28;20186;-71
2021/01/25 01:10:59;;;;;;;8.70;6.25;;;;;;;;;;5011038;28;20178;-72
2021/01/25 01:13:25;;;;;;;9.50;7.63;;;;;;;;;;5012099;28;20214;-72
2021/01/25 01:15:51;;;;;;;6.20;5.60;;;;;;;;;;5031868;28;20547;-71
2021/01/25 01:18:17;;;;;;;11.10;6.85;;;;;;;;;;5014836;28;20175;-72
2021/01/25 01:20:43;;;;;;;12.55;7.97;;;;;;;;;;5015653;28;20197;-71
2021/01/25 01:23:09;;;;;;;8.30;6.68;;;;;;;;;;5031884;28;20197;-72
2021/01/25 01:25:35;;;;;;;7.05;5.70;;;;;;;;;;5030403;28;20174;-72
2021/01/25 01:28:01;;;;;;;10.35;7.45;;;;;;;;;;5027361;28;20555;-72
2021/01/25 01:30:27;;;;;;;8.68;6.43;;;;;;;;;;5014250;28;20182;-72
2021/01/25 01:32:53;;;;;;;7.47;6.35;;;;;;;;;;5031426;28;20743;-71
2021/01/25 01:35:20;;;;;;;8.20;6.53;;;;;;;;;;5028378;28;20563;-71
2021/01/25 01:37:46;;;;;;;5.57;5.05;;;;;;;;;;5031140;28;20206;-72
2021/01/25 01:40:13;;;;;;;7.18;4.97;;;;;;;;;;5030213;28;20174;-72
2021/01/25 01:42:39;;;;;;;6.00;5.40;;;;;;;;;;5021842;28;20245;-72
2021/01/25 01:45:07;;;;;;;5.47;4.72;;;;;;;;;;5019043;28;20646;-71
2021/01/25 01:47:33;;;;;;;4.95;3.83;;;;;;;;;;5031658;28;20691;-71
2021/01/25 01:49:59;;;;;;;5.45;3.38;;;;;;;;;;5013145;28;20183;-72
2021/01/25 01:52:26;;;;;;;6.40;4.05;;;;;;;;;;5028047;28;20244;-72
2021/01/25 01:54:55;;;;;;;4.97;3.90;;;;;;;;;;5030531;28;20723;-71
2021/01/25 01:57:21;;;;;;;8.52;4.00;;;;;;;;;;5021104;28;20708;-72
2021/01/25 01:59:47;;;;;;;5.00;4.55;;;;;;;;;;5017012;28;20171;-72
2021/01/25 02:02:13;;;;;;;6.85;4.72;;;;;;;;;;5022726;28;20185;-71
2021/01/25 02:04:39;;;;;;;5.90;4.72;;;;;;;;;;5029019;28;20174;-72
2021/01/25 02:07:09;;;;;;;5.55;4.50;;;;;;;;;;5030649;28;20719;-72
2021/01/25 02:09:38;;;;;;;8.70;4.80;;;;;;;;;;5029232;28;20185;-72
2021/01/25 02:12:05;;;;;;;6.15;5.05;;;;;;;;;;5029365;28;20260;-72
2021/01/25 02:14:32;;;;;;;7.32;4.43;;;;;;;;;;5012821;28;20242;-72
2021/01/25 02:16:58;;;;;;;6.00;4.20;;;;;;;;;;5019770;28;20197;-72
2021/01/25 02:19:34;;;;;;;6.90;5.05;;;;;;;;;;5028542;28;20602;-72
2021/01/25 02:22:06;;;;;;;5.82;4.72;;;;;;;;;;5030229;28;20178;-72
2021/01/25 02:24:39;;;;;;;8.35;5.75;;;;;;;;;;5031006;28;20206;-72
2021/01/25 02:27:09;;;;;;;11.45;5.22;;;;;;;;;;5019059;28;20665;-72
2021/01/25 02:29:35;;;;;;;5.38;4.88;;;;;;;;;;5011115;28;20210;-72
2021/01/25 02:32:02;;;;;;;4.75;4.00;;;;;;;;;;5030207;28;20186;-72
2021/01/25 02:34:29;;;;;;;9.18;4.45;;;;;;;;;;5028562;28;20210;-72
2021/01/25 02:36:56;;;;;;;7.45;5.00;;;;;;;;;;5025729;28;20993;-72
2021/01/25 02:39:23;;;;;;;6.03;5.43;;;;;;;;;;5028960;28;20217;-72
2021/01/25 02:41:49;;;;;;;6.78;5.22;;;;;;;;;;5030200;28;20669;-72
2021/01/25 02:44:15;;;;;;;6.20;4.65;;;;;;;;;;5021653;28;20203;-72
2021/01/25 02:46:44;;;;;;;5.40;4.93;;;;;;;;;;5010926;28;20186;-72
2021/01/25 02:49:11;;;;;;;5.75;5.18;;;;;;;;;;5017768;28;20183;-72
2021/01/25 02:51:37;;;;;;;6.63;4.85;;;;;;;;;;5029811;28;20209;-72
2021/01/25 02:54:03;;;;;;;6.00;4.95;;;;;;;;;;5030401;28;20268;-72
2021/01/25 02:56:29;;;;;;;5.38;4.88;;;;;;;;;;5029505;28;20189;-71
2021/01/25 02:58:55;;;;;;;6.00;4.68;;;;;;;;;;5030783;28;20549;-72
2021/01/25 03:01:21;;;;;;;5.80;5.13;;;;;;;;;;5016468;28;20182;-72
2021/01/25 03:03:48;;;;;;;7.05;6.45;;;;;;;;;;5028144;28;20689;-72
2021/01/25 03:06:14;;;;;;;6.25;5.65;;;;;;;;;;5023688;28;20453;-72
2021/01/25 03:08:40;;;;;;;5.55;4.82;;;;;;;;;;5010616;28;20183;-71
2021/01/25 03:11:06;;;;;;;6.15;5.47;;;;;;;;;;5013864;28;20179;-71
2021/01/25 03:13:32;;;;;;;8.88;5.30;;;;;;;;;;5020288;28;20214;-72
2021/01/25 03:15:59;;;;;;;4.95;4.45;;;;;;;;;;5020800;28;20182;-72
2021/01/25 03:18:26;;;;;;;8.48;4.80;;;;;;;;;;5017321;28;20174;-72
2021/01/25 03:20:52;;;;;;;4.95;4.45;;;;;;;;;;5024880;28;20538;-72
2021/01/25 03:23:18;;;;;;;6.30;5.68;;;;;;;;;;5031820;28;20202;-71
2021/01/25 03:25:45;;;;;;;5.22;4.70;;;;;;;;;;5024466;28;20182;-71
2021/01/25 03:28:11;;;;;;;5.82;4.65;;;;;;;;;;5028227;28;20193;-72
2021/01/25 03:30:37;;;;;;;7.90;5.22;;;;;;;;;;5034069;28;20175;-72
2021/01/25 03:33:04;;;;;;;6.18;5.05;;;;;;;;;;5023445;28;20641;-72
2021/01/25 03:35:30;;;;;;;6.20;5.05;;;;;;;;;;5033045;28;20292;-72
2021/01/25 03:37:56;;;;;;;6.43;5.03;;;;;;;;;;5024822;28;20202;-72
2021/01/25 03:40:22;;;;;;;6.18;4.40;;;;;;;;;;5032308;28;20186;-72
2021/01/25 03:42:48;;;;;;;6.75;5.57;;;;;;;;;;5017792;28;20202;-72
2021/01/25 03:45:14;;;;;;;5.18;4.15;;;;;;;;;;5027297;28;20251;-72
2021/01/25 03:47:40;;;;;;;5.40;4.80;;;;;;;;;;5032845;28;20664;-72
2021/01/25 03:50:07;;;;;;;8.45;6.30;;;;;;;;;;5028789;28;20190;-72
2021/01/25 03:52:32;;;;;;;5.70;4.32;;;;;;;;;;5023734;28;20712;-72
2021/01/25 03:54:58;;;;;;;5.85;5.20;;;;;;;;;;5016883;28;20248;-72
2021/01/25 03:57:24;;;;;;;7.72;5.38;;;;;;;;;;5030429;28;20265;-72
2021/01/25 03:59:50;;;;;;;5.65;5.05;;;;;;;;;;5031842;28;20181;-72
2021/01/25 04:02:16;;;;;;;13.65;5.82;;;;;;;;;;5025232;28;20378;-72
2021/01/25 04:04:43;;;;;;;6.47;5.88;;;;;;;;;;5028442;28;20190;-72
2021/01/25 04:07:10;;;;;;;5.70;5.15;;;;;;;;;;5030972;28;20182;-72
2021/01/25 04:09:37;;;;;;;9.63;6.70;;;;;;;;;;5032052;28;20227;-72
2021/01/25 04:12:03;;;;;;;9.25;6.28;;;;;;;;;;5033080;28;20183;-72
2021/01/25 04:14:29;;;;;;;9.23;5.55;;;;;;;;;;5032315;28;20256;-72
2021/01/25 04:16:55;;;;;;;7.57;6.30;;;;;;;;;;5033056;28;20175;-71
2021/01/25 04:19:21;;;;;;;8.38;6.10;;;;;;;;;;5032850;28;20198;-70
2021/01/25 04:21:47;;;;;;;9.50;6.10;;;;;;;;;;5032812;28;20213;-71
2021/01/25 04:24:13;;;;;;;7.00;5.68;;;;;;;;;;5031488;28;20444;-71
2021/01/25 04:26:41;;;;;;;6.88;6.10;;;;;;;;;;5028894;28;20194;-71
2021/01/25 04:29:09;;;;;;;9.48;7.43;;;;;;;;;;5052578;28;20551;-72
2021/01/25 04:31:35;;;;;;;8.65;6.93;;;;;;;;;;5030610;28;20201;-71
2021/01/25 04:34:01;;;;;;;6.97;6.20;;;;;;;;;;5015514;28;20219;-70
2021/01/25 04:36:27;;;;;;;8.40;6.60;;;;;;;;;;5021881;28;20417;-70
2021/01/25 04:38:53;;;;;;;9.75;6.75;;;;;;;;;;5036822;28;20454;-71
2021/01/25 04:41:19;;;;;;;8.82;7.93;;;;;;;;;;5032371;28;20308;-71
2021/01/25 04:43:46;;;;;;;7.53;6.82;;;;;;;;;;5020375;28;20289;-72
2021/01/25 04:46:12;;;;;;;9.13;7.80;;;;;;;;;;5025467;28;20186;-71
2021/01/25 04:48:40;;;;;;;11.45;9.10;;;;;;;;;;5016289;28;20277;-71
2021/01/25 04:51:06;;;;;;;9.45;6.63;;;;;;;;;;5018565;28;20657;-71
2021/01/25 04:53:32;;;;;;;12.63;8.73;;;;;;;;;;5016824;28;20281;-71
2021/01/25 04:55:58;;;;;;;11.10;7.40;;;;;;;;;;5012509;28;20171;-70
2021/01/25 04:58:25;;;;;;;10.45;8.57;;;;;;;;;;5017547;28;20210;-71
2021/01/25 05:00:51;;;;;;;10.65;8.43;;;;;;;;;;5024222;28;20183;-71
2021/01/25 05:03:17;;;;;;;11.00;7.30;;;;;;;;;;5022741;28;20759;-71
2021/01/25 05:05:43;;;;;;;11.57;8.85;;;;;;;;;;5016526;28;20182;-71
2021/01/25 05:08:09;;;;;;;10.88;8.13;;;;;;;;;;5028444;28;20277;-70
2021/01/25 05:10:35;;;;;;;9.88;8.05;;;;;;;;;;5039578;28;20619;-70
2021/01/25 05:13:01;;;;;;;8.98;7.97;;;;;;;;;;5019926;28;20226;-71
2021/01/25 05:15:31;;;;;;;10.80;9.70;;;;;;;;;;5018944;28;20206;-70
2021/01/25 05:17:57;;;;;;;11.38;9.15;;;;;;;;;;5027986;28;20197;-71
2021/01/25 05:20:24;;;;;;;10.55;8.90;;;;;;;;;;5018862;28;20182;-71
2021/01/25 05:22:50;;;;;;;13.07;9.18;;;;;;;;;;5030493;28;20205;-71
2021/01/25 05:25:35;;;;;;;12.57;8.50;;;;;;;;;;5025743;28;20236;-71
2021/01/25 05:28:01;;;;;;;9.30;8.43;;;;;;;;;;5013936;28;20183;-71
2021/01/25 05:30:28;;;;;;;10.95;9.52;;;;;;;;;;5032362;28;20182;-70
2021/01/25 05:32:56;;;;;;;13.23;10.88;;;;;;;;;;5021597;28;20203;-71
2021/01/25 05:35:28;;;;;;;13.50;10.52;;;;;;;;;;5011716;28;20577;-70
2021/01/25 05:37:55;;;;;;;13.85;10.38;;;;;;;;;;5031163;28;20298;-71
2021/01/25 05:40:22;;;;;;;11.40;9.43;;;;;;;;;;5042698;28;20258;-70
2021/01/25 05:42:47;;;;;;;12.10;10.02;;;;;;;;;;5015976;28;20286;-70
2021/01/25 05:45:14;;;;;;;13.48;9.25;;;;;;;;;;5029182;28;20269;-72
2021/01/25 05:47:43;;;;;;;14.95;9.40;;;;;;;;;;5026661;28;20451;-71
2021/01/25 05:50:10;;;;;;;11.82;9.50;;;;;;;;;;5011601;28;20171;-71
2021/01/25 05:52:41;;;;;;;14.73;10.32;;;;;;;;;;5028321;28;20590;-72
2021/01/25 05:55:07;;;;;;;11.35;10.13;;;;;;;;;;5031023;28;20194;-71
2021/01/25 05:57:33;;;;;;;12.30;9.52;;;;;;;;;;5027556;28;20661;-71
2021/01/25 05:59:59;;;;;;;12.38;8.95;;;;;;;;;;5031147;28;20181;-72
2021/01/25 06:02:26;;;;;;;16.80;9.52;;;;;;;;;;5027447;28;20217;-71
2021/01/25 06:04:52;;;;;;;18.63;10.57;;;;;;;;;;5031107;28;20177;-71
2021/01/25 06:07:18;;;;;;;12.98;10.57;;;;;;;;;;5030615;28;20190;-71
2021/01/25 06:09:51;;;;;;;12.43;9.40;;;;;;;;;;5039220;28;20182;-71
2021/01/25 06:12:21;;;;;;;13.52;9.55;;;;;;;;;;5019734;28;20930;-70
2021/01/25 06:15:02;;;;;;;13.82;10.65;;;;;;;;;;5012074;28;20249;-69
2021/01/25 06:17:30;;;;;;;12.90;9.40;;;;;;;;;;5012833;28;20642;-71
2021/01/25 06:19:56;;;;;;;17.55;8.70;;;;;;;;;;5009609;28;20229;-71
2021/01/25 06:22:22;;;;;;;13.00;11.27;;;;;;;;;;5026765;28;20182;-71
2021/01/25 06:24:48;;;;;;;13.63;9.70;;;;;;;;;;5030624;28;20440;-71
2021/01/25 06:27:14;;;;;;;12.60;11.02;;;;;;;;;;5030456;28;20179;-71
2021/01/25 06:29:41;;;;;;;11.73;9.63;;;;;;;;;;5030672;28;20613;-71
2021/01/25 06:32:10;;;;;;;13.40;9.85;;;;;;;;;;5026750;28;20695;-71
2021/01/25 06:34:38;;;;;;;11.65;10.25;;;;;;;;;;5021510;28;20214;-71
2021/01/25 06:37:03;;;;;;;10.40;8.85;;;;;;;;;;5029865;28;20312;-71
2021/01/25 06:39:31;;;;;;;14.48;10.90;;;;;;;;;;5036631;28;20174;-71
2021/01/25 06:42:01;;;;;;;12.70;10.68;;;;;;;;;;5050418;28;20173;-71
2021/01/25 06:44:29;;;;;;;15.40;11.25;;;;;;;;;;5033837;28;20198;-70
2021/01/25 06:46:59;;;;;;;15.50;11.25;;;;;;;;;;5017220;28;20658;-71
2021/01/25 06:49:26;;;;;;;11.90;9.57;;;;;;;;;;5010711;28;20258;-72
2021/01/25 06:51:53;;;;;;;14.70;11.02;;;;;;;;;;5030155;28;20186;-71
2021/01/25 06:54:21;;;;;;;16.23;11.63;;;;;;;;;;5030117;28;20233;-71
2021/01/25 06:56:58;;;;;;;14.50;11.35;;;;;;;;;;5030329;28;20170;-71
2021/01/25 06:59:25;;;;;;;13.32;10.98;;;;;;;;;;5030446;28;20172;-70
2021/01/25 07:01:52;;;;;;;21.38;10.65;;;;;;;;;;5030042;28;20646;-70
2021/01/25 07:04:19;;;;;;;14.02;11.20;;;;;;;;;;5029970;28;20417;-70
2021/01/25 07:06:53;;;;;;;19.30;12.20;;;;;;;;;;5030281;28;20189;-70
2021/01/25 07:09:29;;;;;;;17.15;12.35;;;;;;;;;;5034572;28;20262;-70
2021/01/25 07:11:56;;;;;;;14.38;12.65;;;;;;;;;;5049843;28;20201;-70
2021/01/25 07:14:24;;;;;;;13.85;10.80;;;;;;;;;;5049431;28;20278;-70
2021/01/25 07:16:52;;;;;;;15.00;12.18;;;;;;;;;;5028983;28;20181;-70
2021/01/25 07:19:18;;;;;;;15.45;11.23;;;;;;;;;;5029209;28;20181;-71
2021/01/25 07:21:46;;;;;;;16.55;11.52;;;;;;;;;;5030359;28;20182;-71
2021/01/25 07:24:12;;;;;;;15.75;11.55;;;;;;;;;;5029846;28;20249;-70
2021/01/25 07:26:38;;;;;;;15.68;10.63;;;;;;;;;;5031836;28;20273;-70
2021/01/25 07:29:11;;;;;;;17.55;10.88;;;;;;;;;;5041715;28;20269;-70
2021/01/25 07:31:37;;;;;;;14.27;11.43;;;;;;;;;;5029584;28;20233;-71
2021/01/25 07:34:03;;;;;;;11.63;10.43;;;;;;;;;;5029034;28;20678;-70
2021/01/25 07:36:32;;;;;;;13.82;10.50;;;;;;;;;;5030314;28;20178;-71
2021/01/25 07:38:58;;;;;;;16.67;11.85;;;;;;;;;;5049955;28;20182;-71
2021/01/25 07:41:24;;;;;;;16.88;10.70;;;;;;;;;;5050153;28;20552;-70
2021/01/25 07:43:50;;;;;;;13.38;11.02;;;;;;;;;;5049747;28;20228;-71
2021/01/25 07:46:22;;;;;;;12.05;10.70;;;;;;;;;;5029679;28;20178;-70
2021/01/25 07:48:49;;;;;;;12.50;9.13;;;;;;;;;;5030146;28;20170;-71
2021/01/25 07:51:25;;;;;;;13.55;11.43;;;;;;;;;;5029938;28;20672;-70
2021/01/25 07:53:52;;;;;;;12.02;10.48;;;;;;;;;;5029546;28;20206;-70
2021/01/25 07:56:19;;;;;;;15.30;11.25;;;;;;;;;;5029758;28;20178;-70
2021/01/25 07:58:46;;;;;;;13.63;11.20;;;;;;;;;;5029380;28;20178;-71
2021/01/25 08:01:14;;;;;;;14.45;11.75;;;;;;;;;;5031894;28;20186;-70
2021/01/25 08:03:42;;;;;;;13.18;10.77;;;;;;;;;;5022213;28;20198;-70
2021/01/25 08:06:08;;;;;;;15.52;11.15;;;;;;;;;;5032764;28;20540;-71
2021/01/25 08:08:35;;;;;;;14.68;11.80;;;;;;;;;;5035873;28;20182;-71
2021/01/25 08:11:01;;;;;;;12.93;11.23;;;;;;;;;;5033125;28;20174;-70
2021/01/25 08:13:29;;;;;;;16.02;11.45;;;;;;;;;;5033008;28;20206;-70
2021/01/25 08:16:00;;;;;;;17.70;13.32;;;;;;;;;;5031945;28;20264;-70
2021/01/25 08:18:43;;;;;;;16.45;12.02;;;;;;;;;;5033262;28;20170;-70
2021/01/25 08:21:12;;;;;;;13.27;11.00;;;;;;;;;;5032852;28;20174;-71
2021/01/25 08:23:40;;;;;;;16.98;11.40;;;;;;;;;;5033029;28;20193;-71
2021/01/25 08:26:07;;;;;;;16.70;11.60;;;;;;;;;;5032855;28;20173;-71
2021/01/25 08:28:35;;;;;;;13.85;10.95;;;;;;;;;;5032588;28;20193;-71
2021/01/25 08:31:09;;;;;;;18.33;12.15;;;;;;;;;;5031735;28;20332;-71
2021/01/25 08:33:37;;;;;;;22.50;13.52;;;;;;;;;;5031758;28;20186;-71
2021/01/25 08:36:04;;;;;;;13.48;11.38;;;;;;;;;;5032523;28;20220;-71
2021/01/25 08:38:30;;;;;;;15.52;12.13;;;;;;;;;;5050424;28;20209;-70
2021/01/25 08:40:57;;;;;;;16.90;12.50;;;;;;;;;;5045775;28;20174;-70
2021/01/25 08:43:25;;;;;;;18.45;12.30;;;;;;;;;;5032203;28;20803;-70
2021/01/25 08:45:52;;;;;;;16.35;11.88;;;;;;;;;;5032386;28;20163;-70
2021/01/25 08:48:26;;;;;;;14.75;9.82;;;;;;;;;;5032676;28;20171;-70
2021/01/25 08:50:53;;;;;;;11.40;9.70;;;;;;;;;;5033046;28;20194;-71
2021/01/25 08:53:27;;;;;;;13.32;11.18;;;;;;;;;;5032423;28;20234;-70
2021/01/25 08:55:57;;;;;;;13.18;10.20;;;;;;;;;;5031876;28;20575;-70
2021/01/25 08:58:30;;;;;;;15.98;11.68;;;;;;;;;;5032402;28;20167;-71
2021/01/25 09:00:56;;;;;;;12.95;11.32;;;;;;;;;;5032370;28;20170;-71
2021/01/25 09:03:25;;;;;;;13.82;9.85;;;;;;;;;;5032565;28;20197;-70
2021/01/25 09:05:53;;;;;;;14.70;10.80;;;;;;;;;;5031889;28;20317;-71
2021/01/25 09:08:19;;;;;;;14.07;11.10;;;;;;;;;;5038469;28;20186;-70
2021/01/25 09:10:45;;;;;;;15.90;10.93;;;;;;;;;;5032038;28;20561;-72
2021/01/25 09:13:11;;;;;;;14.38;10.80;;;;;;;;;;5031724;28;20245;-71
2021/01/25 09:15:37;;;;;;;15.40;10.40;;;;;;;;;;5031591;28;20740;-71
2021/01/25 09:18:04;;;;;;;15.98;10.45;;;;;;;;;;5031963;28;20413;-71
2021/01/25 09:20:31;;;;;;;14.38;10.40;;;;;;;;;;5031683;28;20178;-71
2021/01/25 09:22:58;;;;;;;14.30;10.65;;;;;;;;;;5031659;28;20186;-71
2021/01/25 09:25:24;;;;;;;15.75;11.27;;;;;;;;;;5031552;28;20689;-71
2021/01/25 09:27:51;;;;;;;14.07;10.82;;;;;;;;;;5031663;28;20294;-71
2021/01/25 09:30:17;;;;;;;17.40;11.93;;;;;;;;;;5031928;28;20253;-71
2021/01/25 09:32:44;;;;;;;15.40;12.43;;;;;;;;;;5031128;28;20202;-71
2021/01/25 09:35:11;;;;;;;12.07;10.10;;;;;;;;;;5031602;28;20194;-71
2021/01/25 09:37:37;;;;;;;14.35;10.00;;;;;;;;;;5038234;28;20179;-71
2021/01/25 09:40:07;;;;;;;14.00;10.40;;;;;;;;;;5020387;28;20541;-71
2021/01/25 09:42:33;;;;;;;12.90;10.07;;;;;;;;;;5031160;28;20441;-71
2021/01/25 09:44:59;;;;;;;16.73;11.48;;;;;;;;;;5031023;28;20194;-70
2021/01/25 09:47:25;;;;;;;18.77;11.27;;;;;;;;;;5031537;28;20178;-70
2021/01/25 09:49:51;;;;;;;11.53;9.43;;;;;;;;;;5031299;28;20490;-71
2021/01/25 09:52:17;;;;;;;14.88;10.27;;;;;;;;;;5031220;28;20431;-71
2021/01/25 09:54:43;;;;;;;16.03;10.40;;;;;;;;;;5030755;28;20201;-71
2021/01/25 09:57:10;;;;;;;14.43;10.50;;;;;;;;;;5030908;28;20424;-71
2021/01/25 09:59:36;;;;;;;11.70;9.15;;;;;;;;;;5030665;28;20568;-70
2021/01/25 10:02:02;;;;;;;13.27;10.87;;;;;;;;;;5031722;28;20170;-71
2021/01/25 10:04:28;;;;;;;12.50;9.85;;;;;;;;;;5030979;28;20825;-71
2021/01/25 10:06:53;;;;;;;13.37;9.83;;;;;;;;;;5035229;28;20262;-72
2021/01/25 10:09:19;;;;;;;13.93;10.43;;;;;;;;;;5035212;28;20972;-72
2021/01/25 10:11:45;;;;;;;16.05;10.10;;;;;;;;;;5030943;28;20408;-72
2021/01/25 10:14:11;;;;;;;14.97;10.43;;;;;;;;;;5030478;28;20792;-71
2021/01/25 10:16:40;;;;;;;13.45;9.93;;;;;;;;;;5031256;28;20405;-73
2021/01/25 10:19:06;;;;;;;14.10;11.07;;;;;;;;;;5031022;28;20171;-71
2021/01/25 10:21:32;;;;;;;12.67;10.27;;;;;;;;;;5030563;28;20641;-71
2021/01/25 10:23:58;;;;;;;12.70;10.27;;;;;;;;;;5030381;28;20504;-72
2021/01/25 10:26:24;;;;;;;11.30;9.60;;;;;;;;;;5030944;28;20618;-72
2021/01/25 10:28:50;;;;;;;10.95;9.40;;;;;;;;;;5030906;28;20439;-72
2021/01/25 10:31:17;;;;;;;12.73;9.65;;;;;;;;;;5031061;28;20173;-72
2021/01/25 10:33:43;;;;;;;14.68;9.10;;;;;;;;;;5029447;28;20200;-72
2021/01/25 10:36:09;;;;;;;11.55;9.40;;;;;;;;;;5030766;28;20621;-72
2021/01/25 10:38:35;;;;;;;15.73;11.15;;;;;;;;;;5046389;28;20198;-72
2021/01/25 10:41:01;;;;;;;11.68;9.05;;;;;;;;;;5030962;28;20216;-73
2021/01/25 10:43:27;;;;;;;16.20;11.60;;;;;;;;;;5030715;28;20194;-72
2021/01/25 10:45:53;;;;;;;17.80;9.97;;;;;;;;;;5030501;28;20432;-72
2021/01/25 10:48:19;;;;;;;18.25;10.73;;;;;;;;;;5030574;28;20488;-72
2021/01/25 10:50:46;;;;;;;14.30;10.23;;;;;;;;;;5029884;28;20547;-72
2021/01/25 10:53:12;;;;;;;15.13;9.75;;;;;;;;;;5011279;28;20207;-72
2021/01/25 10:55:38;;;;;;;11.87;10.07;;;;;;;;;;5011073;28;20592;-72
2021/01/25 10:58:04;;;;;;;12.63;9.70;;;;;;;;;;5010658;28;20743;-72
2021/01/25 11:00:30;;;;;;;16.30;10.70;;;;;;;;;;5011049;28;20398;-72
2021/01/25 11:02:56;;;;;;;14.75;10.80;;;;;;;;;;5010634;28;20671;-71
2021/01/25 11:05:23;;;;;;;11.73;9.90;;;;;;;;;;5030132;28;20185;-71
2021/01/25 11:07:51;;;;;;;14.20;11.00;;;;;;;;;;5042360;28;20599;-70
2021/01/25 11:10:19;;;;;;;12.15;10.38;;;;;;;;;;5031427;28;20221;-71
2021/01/25 11:12:45;;;;;;;13.57;11.18;;;;;;;;;;5030211;28;20205;-71
2021/01/25 11:15:13;;;;;;;17.20;12.70;;;;;;;;;;5030055;28;20289;-72
2021/01/25 11:17:39;;;;;;;13.55;10.60;;;;;;;;;;5030293;28;20182;-72
2021/01/25 11:20:05;;;;;;;15.65;9.60;;;;;;;;;;5030720;28;20163;-71
2021/01/25 11:22:31;;;;;;;12.63;9.40;;;;;;;;;;5030087;28;20232;-72
2021/01/25 11:24:57;;;;;;;18.10;10.38;;;;;;;;;;5030414;28;20174;-71
2021/01/25 11:27:23;;;;;;;12.23;9.80;;;;;;;;;;5029422;28;20186;-71
2021/01/25 11:29:49;;;;;;;17.52;11.07;;;;;;;;;;5031616;28;20444;-71
2021/01/25 11:32:15;;;;;;;16.43;11.40;;;;;;;;;;5038203;28;20611;-72
2021/01/25 11:34:41;;;;;;;16.27;10.75;;;;;;;;;;5032363;28;20470;-72
2021/01/25 11:37:07;;;;;;;13.85;10.15;;;;;;;;;;5033578;28;20178;-72
2021/01/25 11:39:33;;;;;;;20.45;11.90;;;;;;;;;;5033740;28;20634;-71
2021/01/25 11:42:00;;;;;;;14.57;10.88;;;;;;;;;;5033977;28;20177;-72
2021/01/25 11:44:26;;;;;;;12.18;10.18;;;;;;;;;;5023772;28;20221;-72
2021/01/25 11:46:52;;;;;;;14.27;10.23;;;;;;;;;;5031562;28;20228;-71
2021/01/25 11:49:18;;;;;;;9.95;7.50;;;;;;;;;;5036138;28;20178;-71
2021/01/25 11:51:45;;;;;;;13.50;10.68;;;;;;;;;;5042947;28;20558;-71
2021/01/25 11:54:11;;;;;;;13.55;10.45;;;;;;;;;;5033089;28;20209;-71
2021/01/25 11:56:37;;;;;;;12.57;10.25;;;;;;;;;;5033560;28;20166;-73
2021/01/25 11:59:04;;;;;;;15.27;11.20;;;;;;;;;;5033540;28;20549;-73
2021/01/25 12:01:30;;;;;;;9.80;8.77;;;;;;;;;;5028181;28;20190;-72
2021/01/25 12:03:56;;;;;;;12.07;7.70;;;;;;;;;;5032888;28;20194;-73
2021/01/25 12:06:22;;;;;;;14.82;11.85;;;;;;;;;;5032972;28;20198;-72
2021/01/25 12:08:48;;;;;;;18.10;11.88;;;;;;;;;;5032894;28;20181;-72
2021/01/25 12:11:14;;;;;;;14.70;11.65;;;;;;;;;;5043542;28;20182;-72
2021/01/25 12:13:40;;;;;;;14.15;12.65;;;;;;;;;;5047151;28;20213;-72
2021/01/25 12:16:07;;;;;;;15.52;11.20;;;;;;;;;;5032526;28;20637;-72
2021/01/25 12:18:33;;;;;;;13.70;10.77;;;;;;;;;;5032768;28;20175;-72
2021/01/25 12:20:59;;;;;;;20.38;11.55;;;;;;;;;;5041076;28;20193;-73
2021/01/25 12:23:25;;;;;;;15.10;10.77;;;;;;;;;;5032450;28;20241;-72
2021/01/25 12:25:51;;;;;;;13.07;11.25;;;;;;;;;;5032609;28;20213;-72
2021/01/25 12:28:17;;;;;;;12.10;10.38;;;;;;;;;;5041820;28;20173;-72
2021/01/25 12:30:43;;;;;;;12.55;11.27;;;;;;;;;;5052768;28;20241;-72
2021/01/25 12:33:09;;;;;;;14.77;11.20;;;;;;;;;;5031207;28;20198;-72
2021/01/25 12:35:36;;;;;;;15.98;12.13;;;;;;;;;;5026687;28;20607;-72
2021/01/25 12:38:03;;;;;;;19.05;13.85;;;;;;;;;;5033018;28;20170;-72
2021/01/25 12:40:29;;;;;;;15.07;11.50;;;;;;;;;;5029876;28;20174;-73
2021/01/25 12:42:55;;;;;;;18.77;13.27;;;;;;;;;;5030696;28;20205;-73
2021/01/25 12:45:22;;;;;;;13.70;11.73;;;;;;;;;;5031641;28;20587;-72
2021/01/25 12:47:48;;;;;;;15.10;12.68;;;;;;;;;;5032267;28;20507;-73
2021/01/25 12:50:14;;;;;;;14.52;11.15;;;;;;;;;;5032710;28;20171;-72
2021/01/25 12:52:40;;;;;;;10.80;9.63;;;;;;;;;;5030932;28;20202;-73
2021/01/25 12:55:10;;;;;;;14.23;11.63;;;;;;;;;;5031632;28;20206;-73
2021/01/25 12:57:40;;;;;;;16.90;12.63;;;;;;;;;;5030533;28;20182;-72
2021/01/25 13:00:07;;;;;;;13.68;11.23;;;;;;;;;;5030603;28;20186;-72
2021/01/25 13:02:33;;;;;;;16.40;13.02;;;;;;;;;;5031736;28;20209;-72
2021/01/25 13:04:59;;;;;;;12.40;11.00;;;;;;;;;;5030774;28;20182;-73
2021/01/25 13:07:25;;;;;;;13.23;10.40;;;;;;;;;;5032027;28;20460;-73
2021/01/25 13:09:51;;;;;;;12.23;11.02;;;;;;;;;;5020614;28;20194;-73
2021/01/25 13:12:17;;;;;;;14.45;10.77;;;;;;;;;;5030250;28;20193;-73
2021/01/25 13:14:43;;;;;;;14.30;10.97;;;;;;;;;;5028448;28;20198;-73
2021/01/25 13:17:09;;;;;;;11.23;10.20;;;;;;;;;;5032157;28;20409;-73
2021/01/25 13:19:35;;;;;;;10.65;9.55;;;;;;;;;;5032056;28;20425;-73
2021/01/25 13:22:01;;;;;;;11.57;9.87;;;;;;;;;;5031831;28;20189;-73
2021/01/25 13:24:27;;;;;;;10.97;9.87;;;;;;;;;;5031989;28;20440;-73
2021/01/25 13:26:53;;;;;;;10.43;9.52;;;;;;;;;;5031642;28;20440;-74
2021/01/25 13:29:19;;;;;;;10.50;9.45;;;;;;;;;;5033175;28;20187;-74
2021/01/25 13:31:45;;;;;;;14.18;10.35;;;;;;;;;;5031738;28;20189;-74
2021/01/25 13:34:11;;;;;;;11.23;10.00;;;;;;;;;;5031386;28;20678;-74
2021/01/25 13:36:37;;;;;;;14.63;10.30;;;;;;;;;;5031414;28;20182;-74
2021/01/25 13:39:04;;;;;;;10.45;9.50;;;;;;;;;;5031725;28;20501;-74
2021/01/25 13:41:30;;;;;;;11.75;10.35;;;;;;;;;;5031056;28;20186;-74
2021/01/25 13:43:56;;;;;;;13.93;10.40;;;;;;;;;;5030807;28;20685;-74
2021/01/25 13:46:22;;;;;;;13.00;11.70;;;;;;;;;;5031484;28;20186;-73
2021/01/25 13:48:48;;;;;;;11.82;10.35;;;;;;;;;;5031562;28;20182;-73
2021/01/25 13:51:14;;;;;;;12.57;11.10;;;;;;;;;;5030704;28;20206;-73
2021/01/25 13:53:41;;;;;;;12.73;11.43;;;;;;;;;;5025587;28;20211;-73
2021/01/25 13:56:07;;;;;;;13.45;10.50;;;;;;;;;;5030425;28;20174;-73
2021/01/25 13:58:33;;;;;;;11.55;10.35;;;;;;;;;;5041448;28;20177;-73
2021/01/25 14:00:59;;;;;;;14.25;11.45;;;;;;;;;;5050611;28;20177;-73
2021/01/25 14:03:25;;;;;;;9.23;8.32;;;;;;;;;;5051005;28;20677;-73
2021/01/25 14:05:51;;;;;;;11.10;9.65;;;;;;;;;;5043734;28;20550;-73
2021/01/25 14:08:17;;;;;;;12.48;10.95;;;;;;;;;;5018289;28;20603;-73
2021/01/25 14:10:45;;;;;;;12.93;10.77;;;;;;;;;;5029576;28;20194;-73
2021/01/25 14:13:11;;;;;;;13.80;10.43;;;;;;;;;;5031342;28;20206;-73
2021/01/25 14:15:37;;;;;;;13.57;10.75;;;;;;;;;;5030622;28;20260;-73
2021/01/25 14:18:03;;;;;;;12.65;11.35;;;;;;;;;;5031044;28;20205;-73
2021/01/25 14:20:29;;;;;;;12.40;11.20;;;;;;;;;;5030611;28;20560;-73
2021/01/25 14:22:55;;;;;;;14.27;11.60;;;;;;;;;;5030658;28;20202;-73
2021/01/25 14:25:22;;;;;;;13.50;11.47;;;;;;;;;;5029810;28;20672;-72